Time;durP1;ratioP1;P1;durP2;ratioP2;P2;SDS_P1;SDS_P2;PMS_P1;PMS_P2;Temp;Humidity;BMP_temperature;BMP_pressure;BME280_temperature;BME280_humidity;BME280_pressure;Samples;Min_cycle;Max_cycle;Signal;HPM_P1;HPM_P2
2021/08/05 00:01:54;;;;;;;19.63;7.90;;;;;;;15.38;72.14;99795.56;5093652;28;20039;-87
2021/08/05 00:04:20;;;;;;;18.52;8.77;;;;;;;15.40;72.11;99792.50;5093391;28;20032;-83
2021/08/05 00:06:46;;;;;;;16.48;7.53;;;;;;;15.34;71.88;99791.06;5087062;28;20038;-86
2021/08/05 00:09:13;;;;;;;14.68;7.47;;;;;;;15.36;72.50;99797.84;5073186;28;20117;-84
2021/08/05 00:11:39;;;;;;;19.08;7.65;;;;;;;15.32;72.33;99798.84;5073039;28;20091;-84
2021/08/05 00:14:05;;;;;;;23.07;7.17;;;;;;;15.32;71.41;99802.41;5061998;28;20041;-85
2021/08/05 00:16:31;;;;;;;18.73;7.10;;;;;;;15.35;70.76;99803.69;5052957;28;20043;-83
2021/08/05 00:18:58;;;;;;;13.30;5.85;;;;;;;15.36;70.77;99803.34;5051707;28;20056;-90
2021/08/05 00:21:24;;;;;;;15.88;5.80;;;;;;;15.36;70.43;99800.59;5052836;28;20052;-88
2021/08/05 00:23:50;;;;;;;18.02;7.18;;;;;;;15.46;71.37;99816.78;5055716;28;20029;-83
2021/08/05 00:26:16;;;;;;;16.85;7.63;;;;;;;15.41;71.60;99808.69;5074236;28;20090;-84
2021/08/05 00:28:43;;;;;;;17.13;6.78;;;;;;;15.40;71.14;99812.59;5072741;28;20172;-84
2021/08/05 00:31:10;;;;;;;16.88;6.82;;;;;;;15.38;70.94;99803.03;5071347;28;20058;-88
2021/08/05 00:33:36;;;;;;;24.00;6.57;;;;;;;15.35;70.56;99796.22;5073606;28;20036;-84
2021/08/05 00:36:03;;;;;;;27.02;9.75;;;;;;;15.39;70.20;99799.94;5074839;28;20052;-84
2021/08/05 00:38:32;;;;;;;43.10;22.83;;;;;;;15.42;70.69;99801.22;5073466;28;20061;-83
2021/08/05 00:41:00;;;;;;;61.95;33.78;;;;;;;15.32;71.18;99790.59;5072372;28;20045;-83
2021/08/05 00:43:26;;;;;;;39.55;20.95;;;;;;;15.37;70.58;99801.44;5072128;28;20048;-84
2021/08/05 00:45:52;;;;;;;30.27;17.83;;;;;;;15.37;71.11;99793.97;5071449;28;20037;-84
2021/08/05 00:48:18;;;;;;;24.35;14.05;;;;;;;15.41;70.98;99805.94;5072550;28;20051;-84
2021/08/05 00:50:46;;;;;;;25.33;14.88;;;;;;;15.39;71.39;99801.88;5072797;28;20089;-84
2021/08/05 00:53:14;;;;;;;37.60;18.80;;;;;;;15.30;71.67;99801.94;5065398;28;20041;-82
2021/08/05 00:55:41;;;;;;;36.95;21.23;;;;;;;15.11;72.18;99802.38;5072373;28;20178;-83
2021/08/05 00:58:07;;;;;;;37.75;17.55;;;;;;;15.06;72.81;99805.28;5070764;28;20055;-82
2021/08/05 01:00:34;;;;;;;30.42;15.02;;;;;;;14.98;73.04;99797.88;5072383;28;20044;-82
2021/08/05 01:03:13;;;;;;;25.15;12.98;;;;;;;15.01;72.66;99800.78;5053820;28;20051;-84
2021/08/05 01:05:46;;;;;;;29.45;13.30;;;;;;;14.99;73.19;99808.56;5067784;28;20044;-83
2021/08/05 01:08:23;;;;;;;28.85;13.40;;;;;;;14.90;73.27;99807.81;5072884;28;20619;-82
2021/08/05 01:11:06;;;;;;;36.25;14.98;;;;;;;14.65;73.43;99778.44;5092195;28;20043;-83
2021/08/05 01:13:53;;;;;;;52.35;18.58;;;;;;;14.67;73.69;99798.97;5091373;28;20071;-87
2021/08/05 01:16:23;;;;;;;46.00;17.83;;;;;;;14.60;74.35;99790.41;5071012;28;20044;-83
2021/08/05 01:18:52;;;;;;;48.38;18.27;;;;;;;14.51;75.05;99784.94;5074430;28;20138;-83
2021/08/05 01:21:56;;;;;;;43.05;18.40;;;;;;;14.63;74.39;99792.50;5056555;28;20105;-83
2021/08/05 01:24:24;;;;;;;50.70;17.85;;;;;;;14.69;74.10;99802.19;5071832;28;20040;-86
2021/08/05 01:26:50;;;;;;;53.85;18.95;;;;;;;14.72;74.01;99800.72;5069411;28;20040;-88
2021/08/05 01:29:17;;;;;;;68.00;22.10;;;;;;;14.64;73.89;99787.81;5070662;28;20093;-87
2021/08/05 01:31:44;;;;;;;69.38;21.83;;;;;;;14.62;73.77;99787.34;5070635;28;20040;-83
2021/08/05 01:34:16;;;;;;;70.50;22.08;;;;;;;14.67;74.35;99812.75;5072014;28;20035;-84
2021/08/05 01:36:45;;;;;;;89.35;26.45;;;;;;;14.63;74.28;99800.75;5056226;28;20410;-85
2021/08/05 01:39:12;;;;;;;95.10;28.27;;;;;;;14.67;74.90;99810.00;5051455;28;20045;-88
2021/08/05 01:41:40;;;;;;;84.20;28.20;;;;;;;14.65;74.62;99811.44;5051466;28;20041;-88
2021/08/05 01:44:07;;;;;;;57.67;20.77;;;;;;;14.59;73.46;99804.50;5050748;28;20406;-82
2021/08/05 01:46:34;;;;;;;60.67;21.65;;;;;;;14.56;74.03;99823.25;5061007;28;20040;-82
2021/08/05 01:49:01;;;;;;;89.82;31.25;;;;;;;14.50;73.71;99818.22;5070117;28;20505;-82
2021/08/05 01:51:29;;;;;;;86.45;28.92;;;;;;;14.45;74.23;99819.22;5070119;28;20088;-87
2021/08/05 01:53:56;;;;;;;117.57;38.00;;;;;;;14.47;74.56;99821.63;5071505;28;20033;-87
2021/08/05 01:56:25;;;;;;;105.95;34.97;;;;;;;14.43;74.09;99806.91;5067249;28;20092;-83
2021/08/05 01:58:55;;;;;;;94.78;31.33;;;;;;;14.39;75.20;99814.22;5051022;28;20561;-83
2021/08/05 02:01:21;;;;;;;91.00;32.05;;;;;;;14.45;75.17;99812.91;5056361;28;20505;-88
2021/08/05 02:04:13;;;;;;;74.95;26.55;;;;;;;14.41;74.32;99822.97;5057704;28;20111;-83
2021/08/05 02:06:52;;;;;;;78.97;26.60;;;;;;;14.38;74.75;99818.09;5057395;28;20131;-83
2021/08/05 02:09:32;;;;;;;77.07;24.75;;;;;;;14.42;74.54;99817.13;5060431;28;20039;-83
2021/08/05 02:11:59;;;;;;;73.32;24.00;;;;;;;14.46;74.53;99814.53;5095714;28;20101;-83
2021/08/05 02:14:28;;;;;;;71.55;24.90;;;;;;;14.50;74.26;99820.97;5095865;28;20500;-87
2021/08/05 02:16:55;;;;;;;67.97;24.25;;;;;;;14.54;74.19;99814.53;5093074;28;20043;-82
2021/08/05 02:19:24;;;;;;;76.13;23.55;;;;;;;14.54;74.44;99825.56;5053961;28;20040;-85
2021/08/05 02:21:51;;;;;;;72.03;25.23;;;;;;;14.55;74.93;99818.91;5054986;28;20052;-84
2021/08/05 02:24:20;;;;;;;47.63;14.60;;;;;;;14.55;74.32;99807.91;5070664;28;20118;-84
2021/08/05 02:26:46;;;;;;;61.38;21.77;;;;;;;14.70;75.04;99825.84;5054615;28;20086;-82
2021/08/05 02:29:16;;;;;;;57.22;19.25;;;;;;;14.77;74.27;99826.16;5071564;28;20047;-86
2021/08/05 02:31:43;;;;;;;54.22;15.38;;;;;;;14.79;73.91;99821.09;5074712;28;20061;-84
2021/08/05 02:34:11;;;;;;;53.70;16.20;;;;;;;14.91;73.52;99836.13;5074889;28;20036;-82
2021/08/05 02:36:38;;;;;;;39.00;11.95;;;;;;;14.96;73.17;99825.72;5072920;28;20036;-86
2021/08/05 02:39:05;;;;;;;37.30;15.13;;;;;;;15.02;74.11;99835.44;5073512;28;20098;-86
2021/08/05 02:41:33;;;;;;;43.95;13.93;;;;;;;15.09;72.99;99840.44;5074720;28;20283;-85
2021/08/05 02:44:00;;;;;;;37.13;13.68;;;;;;;15.14;72.75;99834.75;5075086;28;20040;-84
2021/08/05 02:46:29;;;;;;;42.47;13.88;;;;;;;15.15;72.89;99839.09;5068392;28;20167;-84
2021/08/05 02:48:58;;;;;;;45.38;15.30;;;;;;;15.07;74.01;99834.47;5072349;28;20143;-83
2021/08/05 02:51:27;;;;;;;41.33;14.00;;;;;;;15.07;74.24;99823.44;5054389;28;20125;-83
2021/08/05 02:53:53;;;;;;;;;;;;;;;15.22;73.79;99842.16;5057621;28;20052;-88
2021/08/05 02:56:22;;;;;;;40.97;15.07;;;;;;;15.22;74.47;99842.16;5090259;28;20305;-82
2021/08/05 02:58:48;;;;;;;47.72;14.95;;;;;;;15.18;74.66;99826.63;5073430;28;20512;-83
2021/08/05 03:01:15;;;;;;;37.35;14.07;;;;;;;15.33;74.89;99839.84;5074569;28;20166;-83
2021/08/05 03:03:42;;;;;;;37.00;13.73;;;;;;;15.30;75.34;99829.50;5074273;28;20047;-85
2021/08/05 03:06:10;;;;;;;43.63;14.43;;;;;;;15.37;75.16;99824.28;5074205;28;20047;-83
2021/08/05 03:08:40;;;;;;;;;;;;;;;15.51;74.45;99843.31;5054785;28;20049;-83
2021/08/05 03:11:06;;;;;;;40.03;14.32;;;;;;;15.57;74.48;99836.47;5053632;28;19928;-83
2021/08/05 03:13:32;;;;;;;37.22;14.52;;;;;;;15.63;74.97;99837.06;5069393;28;20048;-84
2021/08/05 03:15:58;;;;;;;43.75;15.43;;;;;;;15.64;74.72;99834.00;5054117;28;20036;-83
2021/08/05 03:18:24;;;;;;;42.90;15.30;;;;;;;15.73;74.81;99843.06;5054959;28;20044;-83
2021/08/05 03:20:51;;;;;;;77.78;17.98;;;;;;;15.72;75.24;99826.84;5054309;28;20406;-88
2021/08/05 03:23:17;;;;;;;67.72;17.20;;;;;;;15.86;74.39;99837.59;5053802;28;20037;-83
2021/08/05 03:25:44;;;;;;;57.95;16.92;;;;;;;15.90;74.62;99838.56;5054873;28;20068;-86
2021/08/05 03:28:10;;;;;;;73.85;17.73;;;;;;;15.93;74.50;99835.94;5062222;28;20055;-83
2021/08/05 03:30:38;;;;;;;39.13;15.35;;;;;;;16.00;74.57;99832.63;5075770;28;20098;-84
2021/08/05 03:33:04;;;;;;;56.20;15.77;;;;;;;16.08;74.31;99833.69;5075495;28;20055;-85
2021/08/05 03:35:30;;;;;;;47.17;15.27;;;;;;;16.12;74.27;99837.41;5074027;28;20119;-84
2021/08/05 03:37:57;;;;;;;35.92;14.40;;;;;;;16.17;74.55;99831.69;5071923;28;20052;-87
2021/08/05 03:40:24;;;;;;;;;;;;;;;16.25;73.91;99839.06;5054111;28;20032;-84
2021/08/05 03:42:50;;;;;;;62.97;14.67;;;;;;;16.26;74.00;99834.34;5053747;28;19927;-88
2021/08/05 03:45:16;;;;;;;67.53;16.27;;;;;;;16.23;73.80;99830.34;5054006;28;20036;-88
2021/08/05 03:47:42;;;;;;;58.83;14.48;;;;;;;16.26;74.36;99824.16;5053300;28;20712;-83
2021/08/05 03:50:09;;;;;;;53.58;13.63;;;;;;;16.36;73.61;99834.75;5053606;28;20047;-83
2021/08/05 03:52:35;;;;;;;37.03;14.32;;;;;;;16.33;73.69;99820.84;5068644;28;20045;-83
2021/08/05 03:55:03;;;;;;;;;;;;;;;16.48;72.87;99825.72;5053629;28;20048;-83
2021/08/05 03:57:29;;;;;;;37.83;14.00;;;;;;;16.52;73.17;99826.63;5053353;28;19920;-83
2021/08/05 03:59:55;;;;;;;40.13;14.73;;;;;;;16.57;73.21;99834.72;5035408;28;20498;-87
2021/08/05 04:02:21;;;;;;;40.90;12.95;;;;;;;16.55;72.27;99820.44;5053167;28;20048;-83
2021/08/05 04:04:47;;;;;;;33.50;12.57;;;;;;;16.68;72.34;99818.53;5071183;28;20078;-83
2021/08/05 04:07:13;;;;;;;35.53;14.10;;;;;;;16.70;72.24;99820.94;5073018;28;20048;-83
2021/08/05 04:09:39;;;;;;;35.25;13.40;;;;;;;16.84;73.43;99832.50;5068387;28;20052;-83
2021/08/05 04:12:06;;;;;;;50.63;14.13;;;;;;;16.85;73.09;99821.13;5055437;28;20095;-82
2021/08/05 04:14:33;;;;;;;42.42;13.23;;;;;;;16.96;73.26;99821.50;5069588;28;20045;-82
2021/08/05 04:16:59;;;;;;;33.88;12.73;;;;;;;16.97;72.94;99814.81;5072994;28;20048;-83
2021/08/05 04:19:26;;;;;;;28.02;13.35;;;;;;;17.09;72.80;99831.41;5071597;28;20032;-87
2021/08/05 04:21:53;;;;;;;28.42;12.23;;;;;;;17.17;73.16;99828.88;5071000;28;20061;-82
2021/08/05 04:24:20;;;;;;;27.55;12.65;;;;;;;17.23;72.53;99824.72;5071466;28;20045;-82
2021/08/05 04:26:46;;;;;;;31.67;12.32;;;;;;;17.29;71.11;99824.16;5071474;28;20065;-82
2021/08/05 04:29:14;;;;;;;25.73;12.10;;;;;;;17.31;71.34;99830.13;5072570;28;20115;-84
2021/08/05 04:31:40;;;;;;;26.10;12.20;;;;;;;17.37;71.36;99828.75;5070258;28;20513;-86
2021/08/05 04:34:07;;;;;;;;;;;;;;;17.44;69.69;99819.06;5072687;28;20405;-82
2021/08/05 04:36:33;;;;;;;34.28;12.50;;;;;;;17.49;70.05;99818.84;5071947;28;19932;-82
2021/08/05 04:39:00;;;;;;;;;;;;;;;17.53;70.07;99815.03;5072738;28;20040;-82
2021/08/05 04:41:27;;;;;;;35.05;13.35;;;;;;;17.59;69.88;99821.94;5064181;28;20519;-82
2021/08/05 04:43:54;;;;;;;55.70;11.73;;;;;;;17.61;66.12;99816.88;5052208;28;20055;-82
2021/08/05 04:46:20;;;;;;;23.25;9.73;;;;;;;17.68;66.49;99819.06;5050800;28;20037;-81
2021/08/05 04:48:47;;;;;;;;;;;;;;;17.75;65.21;99824.00;5053534;28;20406;-90
2021/08/05 04:51:13;;;;;;;30.20;10.20;;;;;;;17.74;65.68;99814.06;5053212;28;19921;-81
2021/08/05 04:53:39;;;;;;;26.98;11.13;;;;;;;17.81;66.74;99817.09;5054199;28;20319;-82
2021/08/05 04:56:05;;;;;;;26.57;10.33;;;;;;;17.85;66.27;99815.25;5054139;28;20041;-82
2021/08/05 04:58:32;;;;;;;;;;;;;;;17.89;65.29;99818.94;5051826;28;20052;-82
2021/08/05 05:00:58;;;;;;;21.20;8.82;;;;;;;17.94;66.11;99812.34;5052419;28;19921;-81
2021/08/05 05:03:24;;;;;;;23.03;10.77;;;;;;;17.99;66.52;99821.19;5057537;28;20043;-81
2021/08/05 05:05:50;;;;;;;21.17;8.98;;;;;;;18.04;65.84;99818.16;5050782;28;20085;-81
2021/08/05 05:08:20;;;;;;;20.77;7.47;;;;;;;18.11;64.64;99825.06;5052254;28;20441;-84
2021/08/05 05:10:48;;;;;;;19.63;8.20;;;;;;;18.21;64.41;99827.34;5052204;28;20037;-95
2021/08/05 05:13:16;;;;;;;18.80;8.65;;;;;;;18.28;63.99;99822.84;5063470;28;20527;-82
2021/08/05 05:15:43;;;;;;;;;;;;;;;18.38;63.86;99832.59;5072682;28;20044;-82
2021/08/05 05:18:10;;;;;;;21.83;6.78;;;;;;;18.45;63.33;99830.03;5071714;28;19966;-81
2021/08/05 05:20:36;;;;;;;;;;;;;;;18.49;63.64;99828.16;5072141;28;20048;-93
2021/08/05 05:23:06;;;;;;;26.70;8.65;;;;;;;18.57;64.11;99831.13;5071844;28;20455;-83
2021/08/05 05:25:32;;;;;;;;;;;;;;;18.62;64.49;99828.91;5072336;28;20036;-81
2021/08/05 05:27:59;;;;;;;21.67;9.93;;;;;;;18.66;64.41;99821.47;5071804;28;19923;-83
2021/08/05 05:30:25;;;;;;;39.50;11.68;;;;;;;18.74;64.63;99823.34;5072040;28;20040;-82
2021/08/05 05:32:51;;;;;;;29.92;11.70;;;;;;;18.77;64.49;99819.84;5073532;28;20040;-81
2021/08/05 05:35:19;;;;;;;29.53;11.33;;;;;;;18.87;63.95;99818.50;5073317;28;20059;-81
2021/08/05 05:37:48;;;;;;;19.90;11.77;;;;;;;18.85;64.60;99820.84;5072806;28;20139;-86
2021/08/05 05:40:15;;;;;;;31.38;11.48;;;;;;;18.87;64.68;99817.69;5073251;28;20048;-91
2021/08/05 05:42:41;;;;;;;;;;;;;;;18.92;64.91;99812.69;5073321;28;20047;-81
2021/08/05 05:45:09;;;;;;;27.80;12.07;;;;;;;18.93;64.22;99819.03;5085850;28;19920;-84
2021/08/05 05:47:36;;;;;;;25.30;10.85;;;;;;;18.96;63.91;99810.03;5090747;28;20413;-83
2021/08/05 05:50:03;;;;;;;27.58;11.70;;;;;;;19.04;64.32;99819.31;5091979;28;20047;-83
2021/08/05 05:52:29;;;;;;;24.50;11.70;;;;;;;19.10;65.41;99815.09;5070206;28;20041;-82
2021/08/05 05:54:56;;;;;;;28.60;12.45;;;;;;;19.07;64.17;99813.06;5051941;28;20126;-83
2021/08/05 05:57:23;;;;;;;20.00;10.13;;;;;;;19.15;63.96;99806.53;5051556;28;20072;-85
2021/08/05 05:59:49;;;;;;;22.07;10.60;;;;;;;19.23;64.30;99806.34;5070275;28;20497;-82
2021/08/05 06:02:16;;;;;;;15.73;7.80;;;;;;;19.37;61.31;99805.06;5068210;28;20037;-93
2021/08/05 06:04:42;;;;;;;23.02;8.77;;;;;;;19.42;61.25;99808.38;5058104;28;20037;-76
2021/08/05 06:07:13;;;;;;;15.70;7.28;;;;;;;19.48;60.53;99801.38;5074835;28;20044;-77
2021/08/05 06:09:40;;;;;;;22.83;7.90;;;;;;;19.62;61.90;99795.34;5091602;28;20040;-74
2021/08/05 06:12:09;;;;;;;19.23;7.45;;;;;;;19.80;59.44;99800.53;5056251;28;20129;-77
2021/08/05 06:14:35;;;;;;;15.70;6.03;;;;;;;19.87;57.09;99801.50;5072122;28;20068;-75
2021/08/05 06:17:01;;;;;;;23.83;5.67;;;;;;;20.01;58.79;99800.19;5073006;28;20044;-80
2021/08/05 06:19:27;;;;;;;22.92;5.85;;;;;;;20.17;57.64;99795.38;5070644;28;20131;-81
2021/08/05 06:21:54;;;;;;;18.50;4.40;;;;;;;20.15;54.64;99795.72;5060733;28;20087;-82
2021/08/05 06:24:20;;;;;;;13.43;4.15;;;;;;;20.29;55.48;99795.19;5051065;28;20068;-81
2021/08/05 06:26:48;;;;;;;16.15;4.05;;;;;;;20.33;54.77;99795.28;5051014;28;20041;-75
2021/08/05 06:29:15;;;;;;;15.20;4.82;;;;;;;20.34;56.66;99794.91;5049788;28;20080;-86
2021/08/05 06:31:43;;;;;;;15.65;3.85;;;;;;;20.40;55.89;99792.66;5067095;28;20105;-76
2021/08/05 06:34:10;;;;;;;10.77;3.85;;;;;;;20.46;54.29;99807.03;5084067;28;20067;-74
2021/08/05 06:36:37;;;;;;;7.97;3.28;;;;;;;20.34;52.92;99789.38;5072405;28;20516;-75
2021/08/05 06:39:04;;;;;;;8.00;3.20;;;;;;;20.49;53.33;99809.06;5069661;28;20076;-75
2021/08/05 06:41:32;;;;;;;8.48;3.90;;;;;;;20.51;53.62;99801.22;5072185;28;20286;-73
2021/08/05 06:43:58;;;;;;;5.97;3.22;;;;;;;20.57;51.94;99806.09;5067298;28;20044;-76
2021/08/05 06:46:27;;;;;;;14.45;3.97;;;;;;;20.57;51.59;99800.53;5072999;28;20093;-77
2021/08/05 06:48:54;;;;;;;10.45;3.80;;;;;;;20.68;52.16;99803.50;5073570;28;20047;-74
2021/08/05 06:51:21;;;;;;;12.85;3.30;;;;;;;20.76;52.78;99805.25;5066867;28;20041;-77
2021/08/05 06:53:47;;;;;;;8.70;3.45;;;;;;;20.81;53.11;99804.94;5073745;28;20067;-75
2021/08/05 06:56:15;;;;;;;10.52;4.22;;;;;;;20.88;54.09;99804.25;5072611;28;20041;-82
2021/08/05 06:58:42;;;;;;;12.00;3.75;;;;;;;20.93;51.64;99794.81;5082132;28;20044;-78
2021/08/05 07:01:08;;;;;;;;;;;;;;;20.97;52.43;99792.91;5076332;28;20025;-75
2021/08/05 07:03:34;;;;;;;12.25;3.33;;;;;;;20.95;51.82;99784.13;5074723;28;19921;-89
2021/08/05 07:06:00;;;;;;;10.32;4.03;;;;;;;20.98;52.62;99784.19;5072671;28;20093;-74
2021/08/05 07:08:26;;;;;;;12.57;3.83;;;;;;;20.95;51.36;99776.59;5073249;28;20557;-74
2021/08/05 07:10:53;;;;;;;10.77;3.73;;;;;;;21.02;52.58;99787.03;5073391;28;20421;-79
2021/08/05 07:13:18;;;;;;;13.23;4.43;;;;;;;21.36;55.01;99776.88;5069938;28;20289;-80
2021/08/05 07:15:46;;;;;;;7.68;3.33;;;;;;;21.49;51.11;99786.63;5073616;28;20036;-83
2021/08/05 07:18:12;;;;;;;14.48;3.92;;;;;;;21.68;51.51;99774.53;5083664;28;20177;-75
2021/08/05 07:20:39;;;;;;;13.05;3.60;;;;;;;21.73;49.31;99781.78;5083557;28;20032;-75
2021/08/05 07:23:05;;;;;;;;;;;;;;;21.77;51.28;99783.41;5086042;28;20044;-75
2021/08/05 07:25:31;;;;;;;10.63;4.18;;;;;;;21.79;49.64;99761.59;5080423;28;19931;-88
2021/08/05 07:28:01;;;;;;;14.65;4.57;;;;;;;21.63;48.54;99772.09;5075970;28;20524;-90
2021/08/05 07:30:30;;;;;;;22.05;5.00;;;;;;;21.63;51.27;99768.53;5072943;28;20565;-75
2021/08/05 07:32:57;;;;;;;7.07;3.47;;;;;;;21.80;49.10;99765.97;5069358;28;20405;-78
2021/08/05 07:35:24;;;;;;;18.88;3.97;;;;;;;21.98;47.94;99768.16;5073166;28;20047;-78
2021/08/05 07:37:50;;;;;;;10.98;3.35;;;;;;;22.30;50.29;99767.78;5075402;28;20518;-74
2021/08/05 07:40:17;;;;;;;11.43;4.13;;;;;;;22.59;47.43;99761.31;5077731;28;20529;-76
2021/08/05 07:42:43;;;;;;;7.50;3.47;;;;;;;22.87;46.62;99766.34;5087676;28;20045;-76
2021/08/05 07:45:10;;;;;;;6.22;2.65;;;;;;;22.85;45.12;99746.44;5073136;28;20086;-74
2021/08/05 07:47:36;;;;;;;;;;;;;;;23.00;45.68;99758.53;5070497;28;20111;-75
2021/08/05 07:50:02;;;;;;;6.90;3.40;;;;;;;22.99;46.38;99754.13;5073686;28;20389;-76
2021/08/05 07:52:29;;;;;;;8.30;3.22;;;;;;;23.04;46.00;99750.97;5071860;28;20040;-75
2021/08/05 07:54:57;;;;;;;4.25;2.80;;;;;;;23.14;45.61;99750.25;5083004;28;20542;-74
2021/08/05 07:57:23;;;;;;;4.05;2.55;;;;;;;23.20;46.35;99751.50;5083733;28;20082;-77
2021/08/05 07:59:51;;;;;;;7.38;2.65;;;;;;;23.25;45.13;99755.94;5082105;28;20043;-88
2021/08/05 08:02:17;;;;;;;11.30;3.35;;;;;;;23.35;46.58;99757.19;5081795;28;20123;-86
2021/08/05 08:04:42;;;;;;;5.53;3.22;;;;;;;23.44;46.51;99752.88;5077527;28;20036;-91
2021/08/05 08:07:08;;;;;;;11.30;3.03;;;;;;;23.47;44.82;99758.84;5077800;28;20051;-82
2021/08/05 08:09:35;;;;;;;6.43;3.33;;;;;;;23.62;45.87;99757.75;5074891;28;20032;-74
2021/08/05 08:12:01;;;;;;;15.25;2.90;;;;;;;23.73;45.98;99757.81;5070158;28;20051;-91
2021/08/05 08:14:27;;;;;;;8.45;3.20;;;;;;;23.93;45.37;99753.53;5076300;28;20029;-75
2021/08/05 08:16:53;;;;;;;8.88;3.10;;;;;;;23.99;45.01;99756.75;5089324;28;20102;-79
2021/08/05 08:19:19;;;;;;;6.50;2.95;;;;;;;23.99;44.14;99763.13;5089769;28;20036;-89
2021/08/05 08:21:46;;;;;;;28.70;4.60;;;;;;;23.98;43.66;99761.53;5083581;28;20050;-91
2021/08/05 08:24:12;;;;;;;14.65;3.60;;;;;;;24.05;46.42;99760.75;5081829;28;20089;-91
2021/08/05 08:26:38;;;;;;;7.90;3.13;;;;;;;24.11;47.03;99762.78;5089418;28;20040;-92
2021/08/05 08:29:05;;;;;;;11.25;3.05;;;;;;;24.12;45.71;99756.00;5084864;28;20400;-75
2021/08/05 08:31:31;;;;;;;9.07;3.30;;;;;;;24.23;46.69;99769.19;5088470;28;20040;-75
2021/08/05 08:33:58;;;;;;;10.43;3.50;;;;;;;24.28;43.41;99766.03;5082033;28;20107;-74
2021/08/05 08:36:24;;;;;;;7.45;3.08;;;;;;;24.30;45.15;99753.25;5072876;28;20052;-74
2021/08/05 08:38:51;;;;;;;9.15;3.03;;;;;;;24.35;45.93;99750.06;5074876;28;20048;-74
2021/08/05 08:41:21;;;;;;;9.27;3.42;;;;;;;24.49;44.33;99760.50;5080553;28;20044;-74
2021/08/05 08:43:47;;;;;;;5.53;3.25;;;;;;;24.51;43.81;99752.53;5092284;28;20036;-75
2021/08/05 08:46:20;;;;;;;8.10;3.30;;;;;;;24.33;42.98;99751.66;5092473;28;20043;-77
2021/08/05 08:48:52;;;;;;;10.20;3.67;;;;;;;24.50;45.05;99759.34;5055829;28;20033;-75
2021/08/05 08:51:19;;;;;;;8.20;3.50;;;;;;;24.59;44.59;99740.16;5053119;28;20147;-75
2021/08/05 08:53:50;;;;;;;6.68;3.00;;;;;;;24.76;44.07;99749.75;5053150;28;20119;-76
2021/08/05 08:56:17;;;;;;;7.53;3.13;;;;;;;24.87;43.51;99748.97;5053763;28;20527;-75
2021/08/05 08:58:43;;;;;;;8.25;3.38;;;;;;;24.83;41.81;99741.41;5053069;28;20148;-79
2021/08/05 09:01:11;;;;;;;8.68;4.28;;;;;;;24.72;43.34;99737.78;5057829;28;20040;-75
2021/08/05 09:03:39;;;;;;;8.63;3.67;;;;;;;24.58;43.41;99741.38;5073050;28;20509;-75
2021/08/05 09:06:08;;;;;;;6.75;3.00;;;;;;;24.58;43.58;99732.97;5072728;28;20037;-75
2021/08/05 09:08:37;;;;;;;9.50;3.08;;;;;;;24.72;44.17;99734.97;5060539;28;20460;-73
2021/08/05 09:11:03;;;;;;;6.03;2.92;;;;;;;24.66;43.50;99736.56;5052124;28;20507;-77
2021/08/05 09:13:30;;;;;;;7.68;3.13;;;;;;;24.72;42.98;99729.38;5072382;28;20186;-74
2021/08/05 09:15:56;;;;;;;9.75;3.60;;;;;;;24.71;44.18;99725.00;5055004;28;20045;-74
2021/08/05 09:18:35;;;;;;;9.10;3.38;;;;;;;24.76;43.43;99727.38;5051865;28;20610;-76
2021/08/05 09:21:17;;;;;;;8.20;2.88;;;;;;;24.90;42.93;99723.00;5052079;28;20049;-79
2021/08/05 09:23:50;;;;;;;9.00;3.13;;;;;;;24.91;42.34;99725.41;5075975;28;20086;-79
2021/08/05 09:26:32;;;;;;;10.40;3.10;;;;;;;24.92;42.82;99718.59;5074550;28;20051;-79
2021/08/05 09:29:19;;;;;;;11.75;3.85;;;;;;;25.00;42.72;99725.81;5078240;28;20046;-79
2021/08/05 09:31:53;;;;;;;10.15;3.30;;;;;;;24.96;41.75;99719.38;5092045;28;20054;-91
2021/08/05 09:34:31;;;;;;;7.65;3.50;;;;;;;25.09;43.97;99717.78;5076419;28;20456;-79
2021/08/05 09:37:06;;;;;;;6.55;3.17;;;;;;;25.22;42.83;99721.00;5071379;28;20151;-79
2021/08/05 09:39:38;;;;;;;7.63;2.90;;;;;;;25.07;38.41;99706.22;5072162;28;20044;-79
2021/08/05 09:42:09;;;;;;;10.55;4.63;;;;;;;25.15;39.63;99707.03;5073966;28;20404;-79
2021/08/05 09:44:41;;;;;;;8.20;3.90;;;;;;;25.38;41.69;99708.56;5072814;28;20070;-79
2021/08/05 09:47:09;;;;;;;5.82;3.50;;;;;;;25.61;41.14;99708.09;5072804;28;20101;-79
2021/08/05 09:49:37;;;;;;;13.25;4.95;;;;;;;25.66;38.94;99704.88;5054022;28;20456;-79
2021/08/05 09:52:09;;;;;;;6.25;3.33;;;;;;;25.60;39.50;99707.31;5051934;28;20044;-76
2021/08/05 09:54:49;;;;;;;5.47;3.10;;;;;;;25.62;38.67;99704.09;5052439;28;20131;-76
2021/08/05 09:57:26;;;;;;;6.85;3.20;;;;;;;25.61;38.89;99705.31;5051684;28;20041;-88
2021/08/05 10:00:13;;;;;;;7.45;3.10;;;;;;;25.61;37.88;99703.31;5052100;28;20045;-77
2021/08/05 10:02:48;;;;;;;15.02;3.83;;;;;;;25.60;37.64;99700.94;5051920;28;20417;-83
2021/08/05 10:05:21;;;;;;;9.82;3.15;;;;;;;25.55;38.76;99691.72;5051298;28;20045;-87
2021/08/05 10:07:48;;;;;;;7.47;3.55;;;;;;;25.60;38.69;99684.13;5051651;28;20057;-86
2021/08/05 10:10:17;;;;;;;9.93;3.40;;;;;;;25.60;40.71;99692.53;5051437;28;20536;-82
2021/08/05 10:12:54;;;;;;;7.63;2.85;;;;;;;25.51;39.04;99690.94;5064331;28;20093;-78
2021/08/05 10:15:24;;;;;;;6.75;3.67;;;;;;;25.42;40.45;99689.75;5083783;28;20036;-80
2021/08/05 10:17:55;;;;;;;9.00;3.05;;;;;;;25.40;39.48;99689.38;5083507;28;20040;-86
2021/08/05 10:20:24;;;;;;;4.18;2.70;;;;;;;25.30;38.38;99693.81;5070991;28;20489;-85
2021/08/05 10:22:52;;;;;;;9.98;3.10;;;;;;;25.05;39.32;99682.63;5057148;28;20387;-85
2021/08/05 10:25:25;;;;;;;10.57;3.13;;;;;;;25.00;41.85;99692.25;5049548;28;20036;-85
2021/08/05 10:28:00;;;;;;;10.37;3.20;;;;;;;24.77;40.33;99689.06;5072513;28;20062;-84
2021/08/05 10:30:29;;;;;;;8.07;4.10;;;;;;;24.40;41.37;99653.88;5054339;28;20865;-85
2021/08/05 10:32:56;;;;;;;6.55;3.22;;;;;;;24.47;40.46;99679.06;5054639;28;20041;-82
2021/08/05 10:35:23;;;;;;;;;;;;;;;24.39;40.49;99694.97;5055937;28;20068;-83
2021/08/05 10:37:53;;;;;;;5.13;2.88;;;;;;;24.30;42.02;99696.56;5054398;28;19920;-83
2021/08/05 10:40:22;;;;;;;9.68;3.20;;;;;;;24.15;43.22;99687.38;5061805;28;20036;-81
2021/08/05 10:42:52;;;;;;;7.72;3.20;;;;;;;24.04;42.62;99692.94;5092610;28;20698;-82
2021/08/05 10:45:20;;;;;;;6.20;3.20;;;;;;;23.97;42.34;99692.09;5077959;28;20063;-83
2021/08/05 10:47:48;;;;;;;11.13;3.50;;;;;;;23.93;43.60;99689.31;5076238;28;20047;-82
2021/08/05 10:50:17;;;;;;;9.70;3.28;;;;;;;23.94;44.36;99693.72;5072562;28;20039;-84
2021/08/05 10:52:47;;;;;;;5.53;2.88;;;;;;;23.85;45.16;99684.91;5070021;28;20101;-85
2021/08/05 10:55:24;;;;;;;6.53;3.15;;;;;;;23.84;47.16;99691.66;5071684;28;20047;-86
2021/08/05 10:58:16;;;;;;;11.82;5.00;;;;;;;23.72;47.32;99692.03;5081441;28;20048;-86
2021/08/05 11:00:50;;;;;;;10.82;5.18;;;;;;;23.69;49.57;99688.03;5073872;28;20098;-89
2021/08/05 11:03:38;;;;;;;10.23;4.53;;;;;;;23.65;51.87;99696.34;5089934;28;20027;-85
2021/08/05 11:06:26;;;;;;;19.92;4.60;;;;;;;23.59;51.93;99691.53;5076170;28;20079;-85
2021/08/05 11:08:53;;;;;;;9.25;3.55;;;;;;;23.53;50.09;99691.13;5072116;28;20036;-85
2021/08/05 11:11:19;;;;;;;7.80;3.75;;;;;;;23.44;50.06;99682.28;5075837;28;20040;-84
2021/08/05 11:14:06;;;;;;;15.90;3.90;;;;;;;23.31;46.52;99692.19;5074544;28;20043;-84
2021/08/05 11:16:51;;;;;;;11.43;3.53;;;;;;;23.24;46.98;99689.34;5067646;28;20044;-81
2021/08/05 11:19:25;;;;;;;8.70;4.75;;;;;;;23.14;49.02;99674.16;5054609;28;20045;-85
2021/08/05 11:21:52;;;;;;;10.35;4.60;;;;;;;23.06;49.80;99670.53;5070377;28;20159;-83
2021/08/05 11:24:43;;;;;;;12.60;5.28;;;;;;;23.13;47.43;99684.50;5070701;28;20044;-80
2021/08/05 11:27:13;;;;;;;14.82;5.18;;;;;;;23.10;49.37;99687.28;5066905;28;20090;-81
2021/08/05 11:29:39;;;;;;;21.52;4.95;;;;;;;23.06;52.17;99684.47;5053879;28;20118;-82
2021/08/05 11:32:21;;;;;;;10.98;4.50;;;;;;;22.96;48.74;99677.63;5053403;28;20048;-84
2021/08/05 11:35:07;;;;;;;18.10;6.05;;;;;;;22.91;50.67;99657.66;5053691;28;20045;-86
2021/08/05 11:37:36;;;;;;;39.03;6.38;;;;;;;22.86;49.16;99658.81;5057302;28;20462;-83